MiSS Monie — WCZ9166 — position and weather

sailwx.info

Track history (hours):
 
Tides and Currents Weather Stations Pressure Air Temp Water Temp Dewpoint Dewpoint Depression Visibility Wind Speed Wind Dir Waves Ship Positions

MiSS Monie

Owner: MISS MONIE TOWING LLC, HULL, TX. More information available from US FCC via Universal Licensing System and Coast Guard Vessel Documentation Center.

Last reported at 2018-May-21 04:04 UTC. Time now 2018-May-21 09:15 UTC.
Position N 29°46' W 095°06'.

Length 20 m.

Type: Ship. MMSI: 366962010.

Date/timePositionNaut miles runAvg speedWind from/ knotsBaromVisibWave heightAir tempDewpointWater temp
2018-May-21 04:04N 29°46' W 095°06'0 0.0
2018-May-21 03:43N 29°46' W 095°06'0 0.0
2018-May-21 03:21N 29°46' W 095°06'5 0.2
2018-May-20 02:27N 29°43' W 095°01'2 5.1
2018-May-20 02:00N 29°41' W 094°59'3 5.5
2018-May-20 01:30N 29°39' W 094°58'2 4.2
2018-May-20 01:00N 29°37' W 094°58'2 3.8
2018-May-20 00:30N 29°37' W 095°01'0 0.0
2018-May-19 17:18N 29°37' W 095°01'0 0.1
2018-May-19 17:00N 29°37' W 095°01'0 0.0
2018-May-19 16:30N 29°37' W 095°01'0 0.0
2018-May-19 16:00N 29°37' W 095°01'0 0.0
2018-May-19 15:30N 29°37' W 095°01'0 0.0
2018-May-19 15:00N 29°37' W 095°01'0 0.0
2018-May-19 14:30N 29°37' W 095°01'0 0.0
2018-May-19 14:00N 29°37' W 095°01'0 0.0
2018-May-19 13:30N 29°37' W 095°01'0 0.0
2018-May-19 12:59N 29°37' W 095°01'0 0.1
2018-May-19 12:30N 29°37' W 095°01'0 0.1
2018-May-19 12:00N 29°37' W 095°00'0 0.0
2018-May-19 11:30N 29°37' W 095°00'0 0.6
2018-May-19 11:00N 29°37' W 095°00'1 1.4
2018-May-19 10:30N 29°37' W 094°59'2 3.3
2018-May-19 10:00N 29°38' W 094°58'3 5.8
2018-May-19 09:30N 29°41' W 094°59'9 0.4
2018-May-18 10:35N 29°47' W 095°06'0 0.1
2018-May-18 10:30N 29°47' W 095°06'0 0.0
2018-May-18 09:59N 29°47' W 095°06'0 0.0
2018-May-18 09:28N 29°47' W 095°06'0 0.0
2018-May-18 09:00N 29°47' W 095°06'0 0.3
2018-May-18 08:30N 29°47' W 095°06'0 0.0
2018-May-18 08:00N 29°47' W 095°06'0 0.2
2018-May-18 07:30N 29°47' W 095°06'1 2.1
2018-May-18 07:00N 29°46' W 095°06'1 1.3
2018-May-18 06:30N 29°46' W 095°06'0 0.3
2018-May-18 06:00N 29°46' W 095°06'0 0.0
2018-May-18 05:18N 29°46' W 095°06'0 0.0
2018-May-18 05:00N 29°46' W 095°06'0 0.0
2018-May-18 04:29N 29°46' W 095°06'0 0.0
2018-May-18 03:59N 29°46' W 095°06'0 0.0
2018-May-18 03:29N 29°46' W 095°06'0 0.0
2018-May-18 03:00N 29°46' W 095°06'0 0.0
2018-May-18 02:09N 29°46' W 095°06'0 0.0
2018-May-18 01:29N 29°46' W 095°06'5 0.5
2018-May-17 16:10N 29°43' W 095°01'1 4.9
2018-May-17 15:56N 29°42' W 095°01'2 5.5
2018-May-17 15:30N 29°40' W 094°59'3 5.7
2018-May-17 15:00N 29°38' W 094°58'3 5.7
2018-May-17 14:30N 29°35' W 094°56'3 6.0
2018-May-17 14:00N 29°33' W 094°54'3 6.4
2018-May-17 13:30N 29°30' W 094°52'4 7.0
2018-May-17 13:00N 29°27' W 094°50'4 7.5
2018-May-17 12:30N 29°23' W 094°49'5 5.0
2018-May-17 11:33N 29°19' W 094°48'1 2.6
2018-May-17 11:16N 29°19' W 094°49'0 0.2
2018-May-17 10:56N 29°19' W 094°49'0 0.0
2018-May-17 10:28N 29°19' W 094°49'0 0.0
2018-May-17 10:00N 29°19' W 094°49'0 0.0
2018-May-17 09:30N 29°19' W 094°49'0 0.0
2018-May-17 08:20N 29°19' W 094°49'0 0.0
2018-May-17 07:54N 29°19' W 094°49'0 0.0
2018-May-17 07:27N 29°19' W 094°49'0 0.0
2018-May-17 06:58N 29°19' W 094°49'0 0.0
2018-May-17 06:30N 29°19' W 094°49'0 0.0
2018-May-17 05:50N 29°19' W 094°49'0 0.0
2018-May-17 05:26N 29°19' W 094°49'0 0.0
2018-May-17 04:55N 29°19' W 094°49'0 0.0
2018-May-17 04:30N 29°19' W 094°49'0 0.0
2018-May-17 04:00N 29°19' W 094°49'0 0.0
2018-May-17 03:30N 29°19' W 094°49'0 0.0
2018-May-17 03:00N 29°19' W 094°49'0 0.0
2018-May-17 02:28N 29°19' W 094°49'0 0.0
2018-May-17 02:00N 29°19' W 094°49'0 0.0
2018-May-17 01:30N 29°19' W 094°49'0 0.0
2018-May-17 00:55N 29°19' W 094°49'0 0.0
2018-May-17 00:29N 29°19' W 094°49'0 0.1
2018-May-17 00:00N 29°19' W 094°49'0 0.0
2018-May-16 23:30N 29°19' W 094°49'0 0.0
2018-May-16 22:59N 29°19' W 094°49'0 0.0
2018-May-16 22:27N 29°19' W 094°49'0 0.0
2018-May-16 22:00N 29°19' W 094°49'0 0.0
2018-May-16 21:27N 29°19' W 094°49'0 0.0
2018-May-16 21:00N 29°19' W 094°49'0 0.0
2018-May-16 20:30N 29°19' W 094°49'0 0.0
2018-May-16 20:00N 29°19' W 094°49'0 0.2
2018-May-16 19:30N 29°19' W 094°49'2 2.4
2018-May-16 18:39N 29°20' W 094°47'1 4.2
2018-May-16 18:29N 29°21' W 094°47'3 5.3
2018-May-16 18:00N 29°23' W 094°48'7 4.7
2018-May-16 16:26N 29°29' W 094°52'2 4.3
2018-May-16 16:00N 29°31' W 094°53'2 4.0
2018-May-16 15:30N 29°32' W 094°54'2 4.0
2018-May-16 15:00N 29°34' W 094°55'2 4.3
2018-May-16 14:30N 29°36' W 094°57'2 4.3
2018-May-16 14:00N 29°38' W 094°58'2 4.5
2018-May-16 13:30N 29°40' W 094°59'2 3.8
2018-May-16 13:00N 29°42' W 094°60'2 3.5
2018-May-16 12:30N 29°43' W 095°01'2 3.4
2018-May-16 12:00N 29°44' W 095°03'2 4.1
2018-May-16 11:30N 29°46' W 095°04'2 3.6
2018-May-16 11:00N 29°45' W 095°06'1 2.8
2018-May-16 10:30N 29°44' W 095°08'0 0.2
2018-May-16 09:51N 29°44' W 095°08'0 0.0
2018-May-16 09:30N 29°44' W 095°08'0 0.0
2018-May-16 09:00N 29°44' W 095°08'0 0.0
2018-May-16 08:30N 29°44' W 095°08'0 0.0
2018-May-16 08:00N 29°44' W 095°08'0 0.0
2018-May-16 07:30N 29°44' W 095°08'0 0.0
2018-May-16 06:59N 29°44' W 095°08'0 0.0
2018-May-16 06:30N 29°44' W 095°08'0 0.0
2018-May-16 05:48N 29°44' W 095°08'0 0.0
2018-May-16 04:19N 29°44' W 095°08'0 0.0
2018-May-16 03:59N 29°44' W 095°08'0 0.0
2018-May-16 03:13N 29°44' W 095°08'0 0.0
2018-May-16 02:55N 29°44' W 095°08'0 0.0
2018-May-15 14:12N 29°44' W 095°08'0 0.0
2018-May-15 12:54N 29°44' W 095°08'0 0.0
2018-May-15 12:21N 29°44' W 095°08'0 0.0
2018-May-15 08:11N 29°44' W 095°08'0 0.0
2018-May-15 03:50N 29°44' W 095°08'0 0.0
2018-May-15 02:57N 29°44' W 095°08'3 0.3
2018-May-14 13:49N 29°45' W 095°04'2 4.9
2018-May-14 13:29N 29°44' W 095°02'2 4.5
2018-May-14 13:00N 29°42' W 095°00'3 5.1
2018-May-14 12:30N 29°40' W 094°59'4 5.3
2018-May-14 11:47N 29°37' W 094°57'1 5.3
2018-May-14 11:30N 29°35' W 094°56'3 5.1
2018-May-14 11:00N 29°33' W 094°55'3 5.6
2018-May-14 10:30N 29°31' W 094°53'13 3.5
2018-May-14 06:41N 29°21' W 094°43'0 0.1
2018-May-14 06:12N 29°21' W 094°43'0 0.0
2018-May-14 02:04N 29°21' W 094°43'0 0.0
2018-May-14 01:55N 29°21' W 094°43'5 2.0
2018-May-13 23:27N 29°22' W 094°48'7 4.7
2018-May-13 21:52N 29°29' W 094°52'2 4.6
2018-May-13 21:30N 29°30' W 094°52'2 4.5
2018-May-13 21:00N 29°32' W 094°54'2 4.6
2018-May-13 20:30N 29°34' W 094°55'2 4.5
2018-May-13 20:00N 29°36' W 094°57'2 4.7
2018-May-13 19:30N 29°38' W 094°58'2 4.6
2018-May-13 19:00N 29°40' W 094°59'5 0.6
2018-May-13 10:24N 29°44' W 095°03'0 0.0
2018-May-13 04:53N 29°44' W 095°03'0 0.0
2018-May-13 00:59N 29°44' W 095°03'0 0.0
2018-May-13 00:30N 29°44' W 095°03'0 0.0
2018-May-12 23:59N 29°44' W 095°03'0 0.0
2018-May-12 23:30N 29°44' W 095°03'0 0.0
2018-May-12 22:58N 29°44' W 095°03'0 0.0
2018-May-12 22:30N 29°44' W 095°03'3 2.3
2018-May-12 21:25N 29°46' W 095°05'  
Track history (hours):
 
Tides and Currents Weather Stations Pressure Air Temp Water Temp Dewpoint Dewpoint Depression Visibility Wind Speed Wind Dir Waves Ship Positions

MiSS Monie

Owner: MISS MONIE TOWING LLC, HULL, TX. More information available from US FCC via Universal Licensing System and Coast Guard Vessel Documentation Center.

Last reported at 2018-May-21 04:04 UTC. Time now 2018-May-21 09:15 UTC.
Position N 29°46' W 095°06'.

Length 20 m.

Type: Ship. MMSI: 366962010.

Date/timePositionNaut miles runAvg speedWind from/ knotsBaromVisibWave heightAir tempDewpointWater temp
2018-May-21 04:04N 29°46' W 095°06'0 0.0
2018-May-21 03:43N 29°46' W 095°06'0 0.0
2018-May-21 03:21N 29°46' W 095°06'5 0.2
2018-May-20 02:27N 29°43' W 095°01'2 5.1
2018-May-20 02:00N 29°41' W 094°59'3 5.5
2018-May-20 01:30N 29°39' W 094°58'2 4.2
2018-May-20 01:00N 29°37' W 094°58'2 3.8
2018-May-20 00:30N 29°37' W 095°01'0 0.0
2018-May-19 17:18N 29°37' W 095°01'0 0.1
2018-May-19 17:00N 29°37' W 095°01'0 0.0
2018-May-19 16:30N 29°37' W 095°01'0 0.0
2018-May-19 16:00N 29°37' W 095°01'0 0.0
2018-May-19 15:30N 29°37' W 095°01'0 0.0
2018-May-19 15:00N 29°37' W 095°01'0 0.0
2018-May-19 14:30N 29°37' W 095°01'0 0.0
2018-May-19 14:00N 29°37' W 095°01'0 0.0
2018-May-19 13:30N 29°37' W 095°01'0 0.0
2018-May-19 12:59N 29°37' W 095°01'0 0.1
2018-May-19 12:30N 29°37' W 095°01'0 0.1
2018-May-19 12:00N 29°37' W 095°00'0 0.0
2018-May-19 11:30N 29°37' W 095°00'0 0.6
2018-May-19 11:00N 29°37' W 095°00'1 1.4
2018-May-19 10:30N 29°37' W 094°59'2 3.3
2018-May-19 10:00N 29°38' W 094°58'3 5.8
2018-May-19 09:30N 29°41' W 094°59'9 0.4
2018-May-18 10:35N 29°47' W 095°06'0 0.1
2018-May-18 10:30N 29°47' W 095°06'0 0.0
2018-May-18 09:59N 29°47' W 095°06'0 0.0
2018-May-18 09:28N 29°47' W 095°06'0 0.0
2018-May-18 09:00N 29°47' W 095°06'0 0.3
2018-May-18 08:30N 29°47' W 095°06'0 0.0
2018-May-18 08:00N 29°47' W 095°06'0 0.2
2018-May-18 07:30N 29°47' W 095°06'1 2.1
2018-May-18 07:00N 29°46' W 095°06'1 1.3
2018-May-18 06:30N 29°46' W 095°06'0 0.3
2018-May-18 06:00N 29°46' W 095°06'0 0.0
2018-May-18 05:18N 29°46' W 095°06'0 0.0
2018-May-18 05:00N 29°46' W 095°06'0 0.0
2018-May-18 04:29N 29°46' W 095°06'0 0.0
2018-May-18 03:59N 29°46' W 095°06'0 0.0
2018-May-18 03:29N 29°46' W 095°06'0 0.0
2018-May-18 03:00N 29°46' W 095°06'0 0.0
2018-May-18 02:09N 29°46' W 095°06'0 0.0
2018-May-18 01:29N 29°46' W 095°06'5 0.5
2018-May-17 16:10N 29°43' W 095°01'1 4.9
2018-May-17 15:56N 29°42' W 095°01'2 5.5
2018-May-17 15:30N 29°40' W 094°59'3 5.7
2018-May-17 15:00N 29°38' W 094°58'3 5.7
2018-May-17 14:30N 29°35' W 094°56'3 6.0
2018-May-17 14:00N 29°33' W 094°54'3 6.4
2018-May-17 13:30N 29°30' W 094°52'4 7.0
2018-May-17 13:00N 29°27' W 094°50'4 7.5
2018-May-17 12:30N 29°23' W 094°49'5 5.0
2018-May-17 11:33N 29°19' W 094°48'1 2.6
2018-May-17 11:16N 29°19' W 094°49'0 0.2
2018-May-17 10:56N 29°19' W 094°49'0 0.0
2018-May-17 10:28N 29°19' W 094°49'0 0.0
2018-May-17 10:00N 29°19' W 094°49'0 0.0
2018-May-17 09:30N 29°19' W 094°49'0 0.0
2018-May-17 08:20N 29°19' W 094°49'0 0.0
2018-May-17 07:54N 29°19' W 094°49'0 0.0
2018-May-17 07:27N 29°19' W 094°49'0 0.0
2018-May-17 06:58N 29°19' W 094°49'0 0.0
2018-May-17 06:30N 29°19' W 094°49'0 0.0
2018-May-17 05:50N 29°19' W 094°49'0 0.0
2018-May-17 05:26N 29°19' W 094°49'0 0.0
2018-May-17 04:55N 29°19' W 094°49'0 0.0
2018-May-17 04:30N 29°19' W 094°49'0 0.0
2018-May-17 04:00N 29°19' W 094°49'0 0.0
2018-May-17 03:30N 29°19' W 094°49'0 0.0
2018-May-17 03:00N 29°19' W 094°49'0 0.0
2018-May-17 02:28N 29°19' W 094°49'0 0.0
2018-May-17 02:00N 29°19' W 094°49'0 0.0
2018-May-17 01:30N 29°19' W 094°49'0 0.0
2018-May-17 00:55N 29°19' W 094°49'0 0.0
2018-May-17 00:29N 29°19' W 094°49'0 0.1
2018-May-17 00:00N 29°19' W 094°49'0 0.0
2018-May-16 23:30N 29°19' W 094°49'0 0.0
2018-May-16 22:59N 29°19' W 094°49'0 0.0
2018-May-16 22:27N 29°19' W 094°49'0 0.0
2018-May-16 22:00N 29°19' W 094°49'0 0.0
2018-May-16 21:27N 29°19' W 094°49'0 0.0
2018-May-16 21:00N 29°19' W 094°49'0 0.0
2018-May-16 20:30N 29°19' W 094°49'0 0.0
2018-May-16 20:00N 29°19' W 094°49'0 0.2
2018-May-16 19:30N 29°19' W 094°49'2 2.4
2018-May-16 18:39N 29°20' W 094°47'1 4.2
2018-May-16 18:29N 29°21' W 094°47'3 5.3
2018-May-16 18:00N 29°23' W 094°48'7 4.7
2018-May-16 16:26N 29°29' W 094°52'2 4.3
2018-May-16 16:00N 29°31' W 094°53'2 4.0
2018-May-16 15:30N 29°32' W 094°54'2 4.0
2018-May-16 15:00N 29°34' W 094°55'2 4.3
2018-May-16 14:30N 29°36' W 094°57'2 4.3
2018-May-16 14:00N 29°38' W 094°58'2 4.5
2018-May-16 13:30N 29°40' W 094°59'2 3.8
2018-May-16 13:00N 29°42' W 094°60'2 3.5
2018-May-16 12:30N 29°43' W 095°01'2 3.4
2018-May-16 12:00N 29°44' W 095°03'2 4.1
2018-May-16 11:30N 29°46' W 095°04'2 3.6
2018-May-16 11:00N 29°45' W 095°06'1 2.8
2018-May-16 10:30N 29°44' W 095°08'0 0.2
2018-May-16 09:51N 29°44' W 095°08'0 0.0
2018-May-16 09:30N 29°44' W 095°08'0 0.0
2018-May-16 09:00N 29°44' W 095°08'0 0.0
2018-May-16 08:30N 29°44' W 095°08'0 0.0
2018-May-16 08:00N 29°44' W 095°08'0 0.0
2018-May-16 07:30N 29°44' W 095°08'0 0.0
2018-May-16 06:59N 29°44' W 095°08'0 0.0
2018-May-16 06:30N 29°44' W 095°08'0 0.0
2018-May-16 05:48N 29°44' W 095°08'0 0.0
2018-May-16 04:19N 29°44' W 095°08'0 0.0
2018-May-16 03:59N 29°44' W 095°08'0 0.0
2018-May-16 03:13N 29°44' W 095°08'0 0.0
2018-May-16 02:55N 29°44' W 095°08'0 0.0
2018-May-15 14:12N 29°44' W 095°08'0 0.0
2018-May-15 12:54N 29°44' W 095°08'0 0.0
2018-May-15 12:21N 29°44' W 095°08'0 0.0
2018-May-15 08:11N 29°44' W 095°08'0 0.0
2018-May-15 03:50N 29°44' W 095°08'0 0.0
2018-May-15 02:57N 29°44' W 095°08'3 0.3
2018-May-14 13:49N 29°45' W 095°04'2 4.9
2018-May-14 13:29N 29°44' W 095°02'2 4.5
2018-May-14 13:00N 29°42' W 095°00'3 5.1
2018-May-14 12:30N 29°40' W 094°59'4 5.3
2018-May-14 11:47N 29°37' W 094°57'1 5.3
2018-May-14 11:30N 29°35' W 094°56'3 5.1
2018-May-14 11:00N 29°33' W 094°55'3 5.6
2018-May-14 10:30N 29°31' W 094°53'13 3.5
2018-May-14 06:41N 29°21' W 094°43'0 0.1
2018-May-14 06:12N 29°21' W 094°43'0 0.0
2018-May-14 02:04N 29°21' W 094°43'0 0.0
2018-May-14 01:55N 29°21' W 094°43'5 2.0
2018-May-13 23:27N 29°22' W 094°48'7 4.7
2018-May-13 21:52N 29°29' W 094°52'2 4.6
2018-May-13 21:30N 29°30' W 094°52'2 4.5
2018-May-13 21:00N 29°32' W 094°54'2 4.6
2018-May-13 20:30N 29°34' W 094°55'2 4.5
2018-May-13 20:00N 29°36' W 094°57'2 4.7
2018-May-13 19:30N 29°38' W 094°58'2 4.6
2018-May-13 19:00N 29°40' W 094°59'5 0.6
2018-May-13 10:24N 29°44' W 095°03'0 0.0
2018-May-13 04:53N 29°44' W 095°03'0 0.0
2018-May-13 00:59N 29°44' W 095°03'0 0.0
2018-May-13 00:30N 29°44' W 095°03'0 0.0
2018-May-12 23:59N 29°44' W 095°03'0 0.0
2018-May-12 23:30N 29°44' W 095°03'0 0.0
2018-May-12 22:58N 29°44' W 095°03'0 0.0
2018-May-12 22:30N 29°44' W 095°03'3 2.3
2018-May-12 21:25N 29°46' W 095°05'  

Dump ship's entire track history